Varna — LZFZ — position and weather

sailwx.info

Track history (hours):
 
Tides and Currents Weather Stations Pressure Air Temp Water Temp Dewpoint Dewpoint Depression Visibility Wind Speed Wind Dir Waves Ship Positions

Varna

Last reported at 2017-Dec-16 04:48 UTC. Time now 2017-Dec-16 18:54 UTC.
Position N 44°24' E 029°29'.

Length 140 m; draft 3.3 m.

Type: Cargo ship. MMSI: 20713600.

Date/timePositionNaut miles runAvg speedWind from/ knotsBaromVisibWave heightAir tempDewpointWater temp
2017-Dec-16 04:48N 44°24' E 029°29'2 8.3
2017-Dec-16 04:30N 44°23' E 029°26'4 8.2
2017-Dec-16 04:00N 44°21' E 029°20'4 8.2
2017-Dec-16 03:30N 44°20' E 029°15'4 8.3
2017-Dec-16 03:00N 44°18' E 029°10'4 8.5
2017-Dec-16 02:30N 44°16' E 029°04'4 7.7
2017-Dec-16 02:00N 44°14' E 029°00'5 9.0
2017-Dec-16 01:30N 44°09' E 029°00'5 9.0
2017-Dec-16 01:00N 44°05' E 029°00'4 8.9
2017-Dec-16 00:30N 44°01' E 029°00'4 8.7
2017-Dec-16 00:00N 43°56' E 029°00'4 8.9
2017-Dec-15 23:30N 43°52' E 029°00'4 8.7
2017-Dec-15 23:00N 43°47' E 028°60'4 8.0
2017-Dec-15 22:30N 43°44' E 028°58'4 8.5
2017-Dec-15 22:00N 43°40' E 028°54'4 8.7
2017-Dec-15 21:30N 43°37' E 028°51'4 8.7
2017-Dec-15 21:00N 43°34' E 028°47'29 8.4
2017-Dec-15 17:36N 43°15' E 028°16'  
2017-Dec-12 18:50N 43°27' E 029°08'2 5.2
2017-Dec-12 18:29N 43°27' E 029°11'2 5.0
2017-Dec-12 18:00N 43°28' E 029°14'2 4.8
2017-Dec-12 17:30N 43°29' E 029°17'3 4.9
2017-Dec-12 16:55N 43°29' E 029°21'2 4.8
2017-Dec-12 16:28N 43°30' E 029°24'2 4.6
2017-Dec-12 16:00N 43°31' E 029°27'2 4.6
2017-Dec-12 15:29N 43°31' E 029°30'2 4.4
2017-Dec-12 14:59N 43°32' E 029°33'2 4.7
2017-Dec-12 14:30N 43°32' E 029°36'3 6.7
2017-Dec-12 14:00N 43°33' E 029°40'3 6.7
2017-Dec-12 13:30N 43°34' E 029°45'3 6.6
2017-Dec-12 13:00N 43°35' E 029°49'5 6.6
2017-Dec-12 12:18N 43°36' E 029°55'2 6.6
2017-Dec-12 12:00N 43°37' E 029°58'4 6.7
2017-Dec-12 11:22N 43°38' E 030°04'289 6.4
2017-Dec-10 13:53N 45°05' E 036°30'2 6.2
2017-Dec-10 13:30N 45°07' E 036°30'2 4.8
2017-Dec-10 13:00N 45°09' E 036°31'1 0.1
2017-Dec-10 07:55N 45°10' E 036°31'0 0.0
2017-Dec-09 10:43N 45°10' E 036°31'0 0.1
2017-Dec-09 08:34N 45°10' E 036°31'0 1.2
2017-Dec-09 08:30N 45°10' E 036°31'2 4.5
2017-Dec-09 08:00N 45°12' E 036°29'3 5.2
2017-Dec-09 07:30N 45°14' E 036°28'3 5.1
2017-Dec-09 07:00N 45°17' E 036°28'3 5.5
2017-Dec-09 06:31N 45°19' E 036°31'3 6.2
2017-Dec-09 06:00N 45°20' E 036°35'3 5.8
2017-Dec-09 05:31N 45°21' E 036°39'3 6.0
2017-Dec-09 05:00N 45°24' E 036°40'3 5.9
2017-Dec-09 04:31N 45°26' E 036°42'2 4.5
2017-Dec-09 04:00N 45°24' E 036°41'2 4.7
2017-Dec-09 03:30N 45°22' E 036°40'2 3.1
2017-Dec-09 03:00N 45°20' E 036°40'0 0.0
2017-Dec-09 02:30N 45°20' E 036°40'0 0.0
2017-Dec-09 02:00N 45°20' E 036°40'0 0.0
2017-Dec-09 01:30N 45°20' E 036°40'0 0.0
2017-Dec-09 01:00N 45°20' E 036°40'0 0.0
2017-Dec-09 00:30N 45°20' E 036°40'0 0.0
2017-Dec-08 23:57N 45°20' E 036°40'0 0.0
2017-Dec-08 23:30N 45°20' E 036°40'0 0.0
2017-Dec-08 23:00N 45°20' E 036°40'0 0.0
2017-Dec-08 22:30N 45°20' E 036°40'0 0.0
2017-Dec-08 22:00N 45°20' E 036°40'0 0.0
2017-Dec-08 21:30N 45°20' E 036°40'0 0.0
2017-Dec-08 21:00N 45°20' E 036°40'0 0.0
2017-Dec-08 20:30N 45°20' E 036°40'0 0.0
2017-Dec-08 20:00N 45°20' E 036°40'0 0.0
2017-Dec-08 19:30N 45°20' E 036°40'0 0.0
2017-Dec-08 19:00N 45°20' E 036°40'0 0.0
2017-Dec-08 18:30N 45°20' E 036°40'0 0.0
2017-Dec-08 18:00N 45°20' E 036°40'0 0.0
2017-Dec-08 17:30N 45°20' E 036°40'0 0.0
2017-Dec-08 16:54N 45°20' E 036°40'0 0.0
2017-Dec-08 16:30N 45°20' E 036°40'0 0.0
2017-Dec-08 16:00N 45°20' E 036°40'0 0.0
2017-Dec-08 15:30N 45°20' E 036°40'0 0.0
2017-Dec-08 15:00N 45°20' E 036°40'0 0.0
2017-Dec-08 14:30N 45°20' E 036°40'1 1.4
2017-Dec-08 14:00N 45°21' E 036°40'2 3.6
2017-Dec-08 13:30N 45°23' E 036°41'0 0.3
2017-Dec-08 12:59N 45°23' E 036°41'0 0.0
2017-Dec-08 12:29N 45°23' E 036°41'0 0.0
2017-Dec-08 11:59N 45°23' E 036°41'0 0.0
2017-Dec-08 11:29N 45°23' E 036°41'0 0.0
2017-Dec-08 10:59N 45°23' E 036°41'1 1.6
2017-Dec-08 10:30N 45°22' E 036°40'4 7.4
2017-Dec-08 10:00N 45°20' E 036°36'4 8.0
2017-Dec-08 09:30N 45°19' E 036°31'3 6.6
2017-Dec-08 09:00N 45°16' E 036°29'4 7.2
2017-Dec-08 08:30N 45°12' E 036°29'0 0.9
2017-Dec-08 07:58N 45°12' E 036°30'0 0.0
2017-Dec-07 20:31N 45°12' E 036°30'0 1.3
2017-Dec-07 20:29N 45°12' E 036°29'2 4.0
2017-Dec-07 19:54N 45°09' E 036°30'  
Track history (hours):
 
Tides and Currents Weather Stations Pressure Air Temp Water Temp Dewpoint Dewpoint Depression Visibility Wind Speed Wind Dir Waves Ship Positions

Varna

Last reported at 2017-Dec-16 04:48 UTC. Time now 2017-Dec-16 18:54 UTC.
Position N 44°24' E 029°29'.

Length 140 m; draft 3.3 m.

Type: Cargo ship. MMSI: 20713600.

Date/timePositionNaut miles runAvg speedWind from/ knotsBaromVisibWave heightAir tempDewpointWater temp
2017-Dec-16 04:48N 44°24' E 029°29'2 8.3
2017-Dec-16 04:30N 44°23' E 029°26'4 8.2
2017-Dec-16 04:00N 44°21' E 029°20'4 8.2
2017-Dec-16 03:30N 44°20' E 029°15'4 8.3
2017-Dec-16 03:00N 44°18' E 029°10'4 8.5
2017-Dec-16 02:30N 44°16' E 029°04'4 7.7
2017-Dec-16 02:00N 44°14' E 029°00'5 9.0
2017-Dec-16 01:30N 44°09' E 029°00'5 9.0
2017-Dec-16 01:00N 44°05' E 029°00'4 8.9
2017-Dec-16 00:30N 44°01' E 029°00'4 8.7
2017-Dec-16 00:00N 43°56' E 029°00'4 8.9
2017-Dec-15 23:30N 43°52' E 029°00'4 8.7
2017-Dec-15 23:00N 43°47' E 028°60'4 8.0
2017-Dec-15 22:30N 43°44' E 028°58'4 8.5
2017-Dec-15 22:00N 43°40' E 028°54'4 8.7
2017-Dec-15 21:30N 43°37' E 028°51'4 8.7
2017-Dec-15 21:00N 43°34' E 028°47'29 8.4
2017-Dec-15 17:36N 43°15' E 028°16'  
2017-Dec-12 18:50N 43°27' E 029°08'2 5.2
2017-Dec-12 18:29N 43°27' E 029°11'2 5.0
2017-Dec-12 18:00N 43°28' E 029°14'2 4.8
2017-Dec-12 17:30N 43°29' E 029°17'3 4.9
2017-Dec-12 16:55N 43°29' E 029°21'2 4.8
2017-Dec-12 16:28N 43°30' E 029°24'2 4.6
2017-Dec-12 16:00N 43°31' E 029°27'2 4.6
2017-Dec-12 15:29N 43°31' E 029°30'2 4.4
2017-Dec-12 14:59N 43°32' E 029°33'2 4.7
2017-Dec-12 14:30N 43°32' E 029°36'3 6.7
2017-Dec-12 14:00N 43°33' E 029°40'3 6.7
2017-Dec-12 13:30N 43°34' E 029°45'3 6.6
2017-Dec-12 13:00N 43°35' E 029°49'5 6.6
2017-Dec-12 12:18N 43°36' E 029°55'2 6.6
2017-Dec-12 12:00N 43°37' E 029°58'4 6.7
2017-Dec-12 11:22N 43°38' E 030°04'289 6.4
2017-Dec-10 13:53N 45°05' E 036°30'2 6.2
2017-Dec-10 13:30N 45°07' E 036°30'2 4.8
2017-Dec-10 13:00N 45°09' E 036°31'1 0.1
2017-Dec-10 07:55N 45°10' E 036°31'0 0.0
2017-Dec-09 10:43N 45°10' E 036°31'0 0.1
2017-Dec-09 08:34N 45°10' E 036°31'0 1.2
2017-Dec-09 08:30N 45°10' E 036°31'2 4.5
2017-Dec-09 08:00N 45°12' E 036°29'3 5.2
2017-Dec-09 07:30N 45°14' E 036°28'3 5.1
2017-Dec-09 07:00N 45°17' E 036°28'3 5.5
2017-Dec-09 06:31N 45°19' E 036°31'3 6.2
2017-Dec-09 06:00N 45°20' E 036°35'3 5.8
2017-Dec-09 05:31N 45°21' E 036°39'3 6.0
2017-Dec-09 05:00N 45°24' E 036°40'3 5.9
2017-Dec-09 04:31N 45°26' E 036°42'2 4.5
2017-Dec-09 04:00N 45°24' E 036°41'2 4.7
2017-Dec-09 03:30N 45°22' E 036°40'2 3.1
2017-Dec-09 03:00N 45°20' E 036°40'0 0.0
2017-Dec-09 02:30N 45°20' E 036°40'0 0.0
2017-Dec-09 02:00N 45°20' E 036°40'0 0.0
2017-Dec-09 01:30N 45°20' E 036°40'0 0.0
2017-Dec-09 01:00N 45°20' E 036°40'0 0.0
2017-Dec-09 00:30N 45°20' E 036°40'0 0.0
2017-Dec-08 23:57N 45°20' E 036°40'0 0.0
2017-Dec-08 23:30N 45°20' E 036°40'0 0.0
2017-Dec-08 23:00N 45°20' E 036°40'0 0.0
2017-Dec-08 22:30N 45°20' E 036°40'0 0.0
2017-Dec-08 22:00N 45°20' E 036°40'0 0.0
2017-Dec-08 21:30N 45°20' E 036°40'0 0.0
2017-Dec-08 21:00N 45°20' E 036°40'0 0.0
2017-Dec-08 20:30N 45°20' E 036°40'0 0.0
2017-Dec-08 20:00N 45°20' E 036°40'0 0.0
2017-Dec-08 19:30N 45°20' E 036°40'0 0.0
2017-Dec-08 19:00N 45°20' E 036°40'0 0.0
2017-Dec-08 18:30N 45°20' E 036°40'0 0.0
2017-Dec-08 18:00N 45°20' E 036°40'0 0.0
2017-Dec-08 17:30N 45°20' E 036°40'0 0.0
2017-Dec-08 16:54N 45°20' E 036°40'0 0.0
2017-Dec-08 16:30N 45°20' E 036°40'0 0.0
2017-Dec-08 16:00N 45°20' E 036°40'0 0.0
2017-Dec-08 15:30N 45°20' E 036°40'0 0.0
2017-Dec-08 15:00N 45°20' E 036°40'0 0.0
2017-Dec-08 14:30N 45°20' E 036°40'1 1.4
2017-Dec-08 14:00N 45°21' E 036°40'2 3.6
2017-Dec-08 13:30N 45°23' E 036°41'0 0.3
2017-Dec-08 12:59N 45°23' E 036°41'0 0.0
2017-Dec-08 12:29N 45°23' E 036°41'0 0.0
2017-Dec-08 11:59N 45°23' E 036°41'0 0.0
2017-Dec-08 11:29N 45°23' E 036°41'0 0.0
2017-Dec-08 10:59N 45°23' E 036°41'1 1.6
2017-Dec-08 10:30N 45°22' E 036°40'4 7.4
2017-Dec-08 10:00N 45°20' E 036°36'4 8.0
2017-Dec-08 09:30N 45°19' E 036°31'3 6.6
2017-Dec-08 09:00N 45°16' E 036°29'4 7.2
2017-Dec-08 08:30N 45°12' E 036°29'0 0.9
2017-Dec-08 07:58N 45°12' E 036°30'0 0.0
2017-Dec-07 20:31N 45°12' E 036°30'0 1.3
2017-Dec-07 20:29N 45°12' E 036°29'2 4.0
2017-Dec-07 19:54N 45°09' E 036°30'  

Dump ship's entire track history